Ljuta — J8B4127 — position and weather

sailwx.info

Track history (hours):
 
Tides and Currents Weather Stations Pressure Air Temp Water Temp Dewpoint Dewpoint Depression Visibility Wind Speed Wind Dir Waves Ship Positions

Ljuta

Last reported at 2014-Sep-13 07:20 UTC. Time now 2014-Sep-16 19:33 UTC.
Position N 35°17' W 002°55'.

Length 177 m; draft 9.5 m.

Type: Cargo ship. MMSI: 377715000.

Date/timePositionNaut miles runAvg speedWind from/ knotsBaromVisibWave heightAir tempDewpointWater temp
2014-Sep-13 07:20N 35°17' W 002°55'  
2014-Sep-08 20:33N 36°12' W 000°43'2713.6
2014-Sep-08 18:33N 36°20' W 000°11'1313.5
2014-Sep-08 17:33N 36°24' E 000°05'1413.4
2014-Sep-08 16:33N 36°28' E 000°21'1413.7
2014-Sep-08 15:33N 36°32' E 000°37'1613.3
2014-Sep-08 14:22N 36°37' E 000°56'1113.1
2014-Sep-08 13:32N 36°40' E 001°09'1313.0
2014-Sep-08 12:32N 36°44' E 001°25'1313.3
2014-Sep-08 11:32N 36°48' E 001°40'1813.3
2014-Sep-08 10:09N 36°55' E 002°02'1213.0
2014-Sep-08 09:11N 36°58' E 002°17'913.4
2014-Sep-08 08:31N 36°60' E 002°28'3816.6
2014-Sep-08 06:12N 37°03' E 003°16'0 0.3
2014-Sep-08 05:34N 37°03' E 003°16'3113.4
2014-Sep-08 03:17N 37°05' E 003°54'2513.2
2014-Sep-08 01:23N 37°06' E 004°25'2413.0
2014-Sep-07 23:33N 37°07' E 004°55'2713.4
2014-Sep-07 21:33N 37°08' E 005°29'1614.1
2014-Sep-07 20:25N 37°09' E 005°49'1214.1
2014-Sep-07 19:33N 37°09' E 006°04'1413.9
2014-Sep-07 18:31N 37°10' E 006°22'1313.5
2014-Sep-07 17:33N 37°11' E 006°39'1413.8
2014-Sep-07 16:33N 37°11' E 006°56'1413.9
2014-Sep-07 15:33N 37°11' E 007°14'1613.8
2014-Sep-07 14:26N 37°14' E 007°33'1414.2
2014-Sep-07 13:29N 37°15' E 007°50'2814.3
2014-Sep-07 11:33N 37°16' E 008°24'4413.6
2014-Sep-07 08:21N 37°29' E 009°17'1013.0
2014-Sep-07 07:34N 37°33' E 009°29'1712.8
2014-Sep-07 06:15N 37°38' E 009°49'17013.0
2014-Sep-06 17:07N 36°57' E 013°17'712.6
2014-Sep-06 16:34N 36°55' E 013°25'1312.6
2014-Sep-06 15:34N 36°52' E 013°40'1312.8
2014-Sep-06 14:33N 36°48' E 013°56'1312.8
2014-Sep-06 13:34N 36°44' E 014°11'1312.9
2014-Sep-06 12:33N 36°40' E 014°26'1212.3
2014-Sep-06 11:34N 36°37' E 014°41'42013.0
2014-Sep-05 03:16N 36°35' E 023°24'2514.4
2014-Sep-05 01:31N 36°55' E 023°42'1514.5
2014-Sep-05 00:30N 37°07' E 023°54'1414.3
2014-Sep-04 23:31N 37°18' E 024°06'1414.2
2014-Sep-04 22:33N 37°28' E 024°17'1613.3
2014-Sep-04 21:22N 37°41' E 024°28'1113.5
2014-Sep-04 20:33N 37°51' E 024°33'12813.9
2014-Sep-04 11:19N 39°47' E 025°45'16312.7
2014-Sep-03 22:32N 40°58' E 028°57'  
Track history (hours):
 
Tides and Currents Weather Stations Pressure Air Temp Water Temp Dewpoint Dewpoint Depression Visibility Wind Speed Wind Dir Waves Ship Positions

Ljuta

Last reported at 2014-Sep-13 07:20 UTC. Time now 2014-Sep-16 19:33 UTC.
Position N 35°17' W 002°55'.

Length 177 m; draft 9.5 m.

Type: Cargo ship. MMSI: 377715000.

Date/timePositionNaut miles runAvg speedWind from/ knotsBaromVisibWave heightAir tempDewpointWater temp
2014-Sep-13 07:20N 35°17' W 002°55'  
2014-Sep-08 20:33N 36°12' W 000°43'2713.6
2014-Sep-08 18:33N 36°20' W 000°11'1313.5
2014-Sep-08 17:33N 36°24' E 000°05'1413.4
2014-Sep-08 16:33N 36°28' E 000°21'1413.7
2014-Sep-08 15:33N 36°32' E 000°37'1613.3
2014-Sep-08 14:22N 36°37' E 000°56'1113.1
2014-Sep-08 13:32N 36°40' E 001°09'1313.0
2014-Sep-08 12:32N 36°44' E 001°25'1313.3
2014-Sep-08 11:32N 36°48' E 001°40'1813.3
2014-Sep-08 10:09N 36°55' E 002°02'1213.0
2014-Sep-08 09:11N 36°58' E 002°17'913.4
2014-Sep-08 08:31N 36°60' E 002°28'3816.6
2014-Sep-08 06:12N 37°03' E 003°16'0 0.3
2014-Sep-08 05:34N 37°03' E 003°16'3113.4
2014-Sep-08 03:17N 37°05' E 003°54'2513.2
2014-Sep-08 01:23N 37°06' E 004°25'2413.0
2014-Sep-07 23:33N 37°07' E 004°55'2713.4
2014-Sep-07 21:33N 37°08' E 005°29'1614.1
2014-Sep-07 20:25N 37°09' E 005°49'1214.1
2014-Sep-07 19:33N 37°09' E 006°04'1413.9
2014-Sep-07 18:31N 37°10' E 006°22'1313.5
2014-Sep-07 17:33N 37°11' E 006°39'1413.8
2014-Sep-07 16:33N 37°11' E 006°56'1413.9
2014-Sep-07 15:33N 37°11' E 007°14'1613.8
2014-Sep-07 14:26N 37°14' E 007°33'1414.2
2014-Sep-07 13:29N 37°15' E 007°50'2814.3
2014-Sep-07 11:33N 37°16' E 008°24'4413.6
2014-Sep-07 08:21N 37°29' E 009°17'1013.0
2014-Sep-07 07:34N 37°33' E 009°29'1712.8
2014-Sep-07 06:15N 37°38' E 009°49'17013.0
2014-Sep-06 17:07N 36°57' E 013°17'712.6
2014-Sep-06 16:34N 36°55' E 013°25'1312.6
2014-Sep-06 15:34N 36°52' E 013°40'1312.8
2014-Sep-06 14:33N 36°48' E 013°56'1312.8
2014-Sep-06 13:34N 36°44' E 014°11'1312.9
2014-Sep-06 12:33N 36°40' E 014°26'1212.3
2014-Sep-06 11:34N 36°37' E 014°41'42013.0
2014-Sep-05 03:16N 36°35' E 023°24'2514.4
2014-Sep-05 01:31N 36°55' E 023°42'1514.5
2014-Sep-05 00:30N 37°07' E 023°54'1414.3
2014-Sep-04 23:31N 37°18' E 024°06'1414.2
2014-Sep-04 22:33N 37°28' E 024°17'1613.3
2014-Sep-04 21:22N 37°41' E 024°28'1113.5
2014-Sep-04 20:33N 37°51' E 024°33'12813.9
2014-Sep-04 11:19N 39°47' E 025°45'16312.7
2014-Sep-03 22:32N 40°58' E 028°57'  

Dump ship's entire track history